createdAt,value
2018-12-02T00:00:19.732Z,8.50
2018-12-02T00:02:47.980Z,8.60
2018-12-02T00:05:16.093Z,8.50
2018-12-02T00:07:44.276Z,8.50
2018-12-02T00:10:13.679Z,8.60
2018-12-02T00:12:41.771Z,8.60
2018-12-02T00:15:13.111Z,8.60
2018-12-02T00:17:41.228Z,8.60
2018-12-02T00:20:11.540Z,8.60
2018-12-02T00:22:39.763Z,8.60
2018-12-02T00:25:15.691Z,8.60
2018-12-02T00:27:45.096Z,8.50
2018-12-02T00:30:17.287Z,8.60
2018-12-02T00:32:45.573Z,8.60
2018-12-02T00:35:15.516Z,8.60
2018-12-02T00:37:44.613Z,8.60
2018-12-02T00:40:14.640Z,8.60
2018-12-02T00:42:45.083Z,8.60
2018-12-02T00:45:15.323Z,8.60
2018-12-02T00:47:43.436Z,8.60
2018-12-02T00:50:12.621Z,8.60
2018-12-02T00:52:41.004Z,8.60
2018-12-02T00:55:19.891Z,8.50
2018-12-02T00:57:48.435Z,8.60
2018-12-02T01:00:16.927Z,8.60
2018-12-02T01:02:45.935Z,8.60
2018-12-02T01:05:15.900Z,8.60
2018-12-02T01:07:44.088Z,8.60
2018-12-02T01:10:13.461Z,8.60
2018-12-02T01:12:41.623Z,8.60
2018-12-02T01:15:11.985Z,8.60
2018-12-02T01:17:40.108Z,8.60
2018-12-02T01:20:10.792Z,8.60
2018-12-02T01:22:38.940Z,8.50
2018-12-02T01:25:08.732Z,8.50
2018-12-02T01:27:36.975Z,8.50
2018-12-02T01:30:16.413Z,8.40
2018-12-02T01:32:44.609Z,8.50
2018-12-02T01:35:13.356Z,8.40
2018-12-02T01:37:41.475Z,8.40
2018-12-02T01:40:11.720Z,8.40
2018-12-02T01:42:39.904Z,8.40
2018-12-02T01:45:14.196Z,8.50
2018-12-02T01:47:42.351Z,8.50
2018-12-02T01:50:12.720Z,8.50
2018-12-02T01:52:40.912Z,8.50
2018-12-02T01:55:09.369Z,8.50
2018-12-02T01:57:37.597Z,8.50
2018-12-02T02:00:12.844Z,8.50
2018-12-02T02:02:40.960Z,8.50
2018-12-02T02:05:09.136Z,8.50
2018-12-02T02:07:37.414Z,8.50
2018-12-02T02:10:09.792Z,8.50
2018-12-02T02:12:37.899Z,8.50
2018-12-02T02:15:07.180Z,8.50
2018-12-02T02:17:35.298Z,8.50
2018-12-02T02:20:04.396Z,8.50
2018-12-02T02:22:32.500Z,8.50
2018-12-02T02:25:00.669Z,8.50
2018-12-02T02:27:28.764Z,8.50
2018-12-02T02:29:56.946Z,8.60
2018-12-02T02:32:25.160Z,8.60
2018-12-02T02:34:53.317Z,8.60
2018-12-02T02:37:30.189Z,8.60
2018-12-02T02:39:58.300Z,8.60
2018-12-02T02:42:26.598Z,8.60
2018-12-02T02:44:54.780Z,8.60
2018-12-02T02:47:22.957Z,8.60
2018-12-02T02:49:51.165Z,8.60
2018-12-02T02:52:19.336Z,8.60
2018-12-02T02:54:47.557Z,8.60
2018-12-02T02:57:15.704Z,8.60
2018-12-02T02:59:43.804Z,8.60
2018-12-02T03:02:12.009Z,8.70
2018-12-02T03:04:40.172Z,8.60
2018-12-02T03:07:08.351Z,8.70
2018-12-02T03:09:36.452Z,8.60
2018-12-02T03:12:04.668Z,8.60
2018-12-02T03:14:32.816Z,8.60
2018-12-02T03:17:00.996Z,8.60
2018-12-02T03:19:29.184Z,8.60
2018-12-02T03:21:57.360Z,8.60
2018-12-02T03:24:25.474Z,8.60
2018-12-02T03:26:53.648Z,8.60
2018-12-02T03:29:21.850Z,8.60
2018-12-02T03:31:50.019Z,8.70
2018-12-02T03:34:18.208Z,8.70
2018-12-02T03:36:46.437Z,8.70
2018-12-02T03:39:14.584Z,8.70
2018-12-02T03:41:42.765Z,8.70
2018-12-02T03:44:10.960Z,8.70
2018-12-02T03:46:39.157Z,8.60
2018-12-02T03:49:07.333Z,8.60
2018-12-02T03:51:35.523Z,8.60
2018-12-02T03:54:03.796Z,8.60
2018-12-02T03:56:31.988Z,8.50
2018-12-02T03:59:00.185Z,8.50
2018-12-02T04:01:28.374Z,8.40
2018-12-02T04:03:56.549Z,8.40
2018-12-02T04:06:24.649Z,8.40
2018-12-02T04:08:52.823Z,8.30
2018-12-02T04:11:21.019Z,8.30
2018-12-02T04:13:49.216Z,8.30
2018-12-02T04:16:17.384Z,8.30
2018-12-02T04:18:45.583Z,8.30
2018-12-02T04:21:13.755Z,8.30
2018-12-02T04:23:41.946Z,8.30
2018-12-02T04:26:10.138Z,8.30
2018-12-02T04:28:38.318Z,8.30
2018-12-02T04:31:06.509Z,8.30
2018-12-02T04:33:34.692Z,8.30
2018-12-02T04:36:02.888Z,8.20
2018-12-02T04:38:31.857Z,8.20
2018-12-02T04:40:59.968Z,8.20
2018-12-02T04:43:28.154Z,8.20
2018-12-02T04:45:56.365Z,8.20
2018-12-02T04:48:24.525Z,8.20
2018-12-02T04:50:52.629Z,8.20
2018-12-02T04:53:20.792Z,8.20
2018-12-02T04:55:48.909Z,8.20
2018-12-02T04:58:17.069Z,8.20
2018-12-02T05:00:45.277Z,8.20
2018-12-02T05:03:13.439Z,8.20
2018-12-02T05:05:41.588Z,8.20
2018-12-02T05:08:09.717Z,8.10
2018-12-02T05:10:37.911Z,8.10
2018-12-02T05:13:06.428Z,8.20
2018-12-02T05:15:34.632Z,8.20
2018-12-02T05:18:02.782Z,8.10
2018-12-02T05:20:30.975Z,8.10
2018-12-02T05:22:59.157Z,8.10
2018-12-02T05:25:27.333Z,8.10
2018-12-02T05:27:55.525Z,8.10
2018-12-02T05:30:23.793Z,8.20
2018-12-02T05:32:52.796Z,8.20
2018-12-02T05:35:20.935Z,8.10
2018-12-02T05:37:49.124Z,8.10
2018-12-02T05:40:22.194Z,8.10
2018-12-02T05:42:50.831Z,8.10
2018-12-02T05:45:19.257Z,8.10
2018-12-02T05:47:47.472Z,8.10
2018-12-02T05:50:23.671Z,8.10
2018-12-02T05:52:53.859Z,8.10
2018-12-02T05:55:24.290Z,8.10
2018-12-02T05:57:52.504Z,8.10
2018-12-02T06:00:21.636Z,8.10
2018-12-02T06:02:49.808Z,8.10
2018-12-02T06:05:17.980Z,8.10
2018-12-02T06:07:46.173Z,8.10
2018-12-02T06:10:16.386Z,8.10
2018-12-02T06:12:44.495Z,8.10
2018-12-02T06:15:13.689Z,8.10
2018-12-02T06:17:41.796Z,8.10
2018-12-02T06:20:12.299Z,8.10
2018-12-02T06:22:40.415Z,8.10
2018-12-02T06:25:09.298Z,8.10
2018-12-02T06:27:37.812Z,8.10
2018-12-02T06:30:13.040Z,8.10
2018-12-02T06:32:41.157Z,8.10
2018-12-02T06:35:10.641Z,8.10
2018-12-02T06:37:38.772Z,8.10
2018-12-02T06:40:19.740Z,8.10
2018-12-02T06:42:48.132Z,8.10
2018-12-02T06:45:16.320Z,8.10
2018-12-02T06:47:44.515Z,8.10
2018-12-02T06:50:17.792Z,8.10
2018-12-02T06:52:45.909Z,8.10
2018-12-02T06:55:20.812Z,8.10
2018-12-02T06:57:51.976Z,8.10
2018-12-02T07:00:25.692Z,8.10
2018-12-02T07:03:19.601Z,8.10
2018-12-02T07:05:48.087Z,8.10
2018-12-02T07:08:16.193Z,8.20
2018-12-02T07:10:44.373Z,8.20
2018-12-02T07:13:12.564Z,8.20
2018-12-02T07:15:40.745Z,8.20
2018-12-02T07:18:10.660Z,8.20
2018-12-02T07:20:38.779Z,8.20
2018-12-02T07:23:06.973Z,8.20
2018-12-02T07:25:35.131Z,8.30
2018-12-02T07:28:03.315Z,8.30
2018-12-02T07:30:31.421Z,8.20
2018-12-02T07:32:59.590Z,8.30
2018-12-02T07:35:27.681Z,8.30
2018-12-02T07:37:57.376Z,8.30
2018-12-02T07:40:41.345Z,8.20
2018-12-02T07:43:10.759Z,8.30
2018-12-02T07:45:38.868Z,8.20
2018-12-02T07:48:07.045Z,8.20
2018-12-02T07:50:35.147Z,8.20
2018-12-02T07:53:03.319Z,8.20
2018-12-02T07:55:31.512Z,8.20
2018-12-02T07:57:59.680Z,8.20
2018-12-02T08:00:27.788Z,8.20
2018-12-02T08:02:55.964Z,8.20
2018-12-02T08:05:24.160Z,8.20
2018-12-02T08:07:52.716Z,8.20
2018-12-02T08:10:20.832Z,8.20
2018-12-02T08:12:49.015Z,8.30
2018-12-02T08:15:19.033Z,8.30
2018-12-02T08:17:47.238Z,8.20
2018-12-02T08:20:17.292Z,8.30
2018-12-02T08:22:51.298Z,8.30
2018-12-02T08:25:17.452Z,8.30
2018-12-02T08:27:45.649Z,8.30
2018-12-02T08:30:23.552Z,8.30
2018-12-02T08:32:51.767Z,8.30
2018-12-02T08:35:21.220Z,8.30
2018-12-02T08:37:51.749Z,8.30
2018-12-02T08:40:19.910Z,8.40
2018-12-02T08:42:48.062Z,8.40
2018-12-02T08:45:17.240Z,8.40
2018-12-02T08:47:45.683Z,8.40
2018-12-02T08:50:15.589Z,8.40
2018-12-02T08:52:43.948Z,8.50
2018-12-02T08:55:14.184Z,8.50
2018-12-02T08:57:42.324Z,8.50
2018-12-02T09:00:14.445Z,8.50
2018-12-02T09:02:43.463Z,8.60
2018-12-02T09:05:12.663Z,8.60
2018-12-02T09:07:40.811Z,8.60
2018-12-02T09:10:15.908Z,8.60
2018-12-02T09:12:44.098Z,8.70
2018-12-02T09:15:12.216Z,8.70
2018-12-02T09:17:40.396Z,8.70
2018-12-02T09:20:13.555Z,8.70
2018-12-02T09:22:41.681Z,8.70
2018-12-02T09:25:09.857Z,8.80
2018-12-02T09:27:38.056Z,8.70
2018-12-02T09:30:15.547Z,8.80
2018-12-02T09:32:43.665Z,8.70
2018-12-02T09:35:11.985Z,8.80
2018-12-02T09:37:40.129Z,8.70
2018-12-02T09:40:10.528Z,8.70
2018-12-02T09:42:39.033Z,8.80
2018-12-02T09:45:09.191Z,8.80
2018-12-02T09:47:37.552Z,8.80
2018-12-02T09:50:07.695Z,8.80
2018-12-02T09:52:35.832Z,8.80
2018-12-02T09:55:04.800Z,8.80
2018-12-02T09:57:32.986Z,8.90
2018-12-02T10:00:01.167Z,8.80
2018-12-02T10:02:33.405Z,8.90
2018-12-02T10:05:01.549Z,8.90
2018-12-02T10:07:29.728Z,8.90
2018-12-02T10:09:58.829Z,8.90
2018-12-02T10:12:27.035Z,8.90
2018-12-02T10:14:55.206Z,8.90
2018-12-02T10:17:23.407Z,8.90
2018-12-02T10:19:51.579Z,8.90
2018-12-02T10:22:19.774Z,8.90
2018-12-02T10:24:47.953Z,9.00
2018-12-02T10:27:16.163Z,9.00
2018-12-02T10:29:44.332Z,9.00
2018-12-02T10:32:12.571Z,9.00
2018-12-02T10:34:40.607Z,9.00
2018-12-02T10:37:08.792Z,9.10
2018-12-02T10:39:36.980Z,9.10
2018-12-02T10:42:05.184Z,9.10
2018-12-02T10:44:33.365Z,9.10
2018-12-02T10:47:01.541Z,9.10
2018-12-02T10:49:29.724Z,9.10
2018-12-02T10:51:57.910Z,9.10
2018-12-02T10:54:26.110Z,9.10
2018-12-02T10:56:54.271Z,9.20
2018-12-02T10:59:22.372Z,9.20
2018-12-02T11:01:54.820Z,9.30
2018-12-02T11:04:22.948Z,9.30
2018-12-02T11:06:51.121Z,9.30
2018-12-02T11:09:19.316Z,9.30
2018-12-02T11:11:47.512Z,9.40
2018-12-02T11:14:15.696Z,9.40
2018-12-02T11:16:43.873Z,9.40
2018-12-02T11:19:12.060Z,9.40
2018-12-02T11:21:40.232Z,9.50
2018-12-02T11:24:08.340Z,9.50
2018-12-02T11:26:36.524Z,9.50
2018-12-02T11:29:04.890Z,9.50
2018-12-02T11:31:33.004Z,9.50
2018-12-02T11:34:01.188Z,9.50
2018-12-02T11:36:29.364Z,9.60
2018-12-02T11:38:57.464Z,9.60
2018-12-02T11:41:25.642Z,9.60
2018-12-02T11:43:53.841Z,9.70
2018-12-02T11:46:22.004Z,9.70
2018-12-02T11:48:50.113Z,9.70
2018-12-02T11:51:18.285Z,9.70
2018-12-02T11:53:46.371Z,9.70
2018-12-02T11:56:14.598Z,9.80
2018-12-02T11:58:42.748Z,9.80
2018-12-02T12:01:10.936Z,9.80
2018-12-02T12:03:39.112Z,9.90
2018-12-02T12:06:07.218Z,9.90
2018-12-02T12:08:35.392Z,10.00
2018-12-02T12:11:03.583Z,10.00
2018-12-02T12:13:32.478Z,10.00
2018-12-02T12:16:00.680Z,10.10
2018-12-02T12:18:28.845Z,10.10
2018-12-02T12:20:56.948Z,10.20
2018-12-02T12:23:25.120Z,10.20
2018-12-02T12:25:53.627Z,10.20
2018-12-02T12:28:21.817Z,10.30
2018-12-02T12:30:50.005Z,10.30
2018-12-02T12:33:18.188Z,10.30
2018-12-02T12:35:48.712Z,10.40
2018-12-02T12:38:16.816Z,10.50
2018-12-02T12:40:46.001Z,10.60
2018-12-02T12:43:18.908Z,10.70
2018-12-02T12:45:47.058Z,10.80
2018-12-02T12:48:15.184Z,10.90
2018-12-02T12:50:43.379Z,10.90
2018-12-02T12:53:12.048Z,11.00
2018-12-02T12:55:40.203Z,11.00
2018-12-02T12:58:09.036Z,11.00
2018-12-02T13:00:37.151Z,11.10
2018-12-02T13:03:06.140Z,11.10
2018-12-02T13:05:34.236Z,11.20
2018-12-02T13:08:02.449Z,11.40
2018-12-02T13:10:30.619Z,11.50
2018-12-02T13:12:58.820Z,11.60
2018-12-02T13:15:26.993Z,11.70
2018-12-02T13:17:56.388Z,11.80
2018-12-02T13:20:25.892Z,11.80
2018-12-02T13:22:54.011Z,11.90
2018-12-02T13:25:22.197Z,12.00
2018-12-02T13:27:50.393Z,12.00
2018-12-02T13:30:19.608Z,12.10
2018-12-02T13:32:49.929Z,12.20
2018-12-02T13:35:18.084Z,12.20
2018-12-02T13:37:46.216Z,12.20
2018-12-02T13:40:19.377Z,12.20
2018-12-02T13:43:07.503Z,12.20
2018-12-02T13:45:35.641Z,12.20
2018-12-02T13:48:04.056Z,12.20
2018-12-02T13:50:32.211Z,12.20
2018-12-02T13:53:00.313Z,12.30
2018-12-02T13:55:29.704Z,12.40
2018-12-02T13:57:58.400Z,12.50
2018-12-02T14:00:27.098Z,12.60
2018-12-02T14:03:05.197Z,12.70
2018-12-02T14:05:33.502Z,12.80
2018-12-02T14:08:01.620Z,12.80
2018-12-02T14:10:29.801Z,12.80
2018-12-02T14:13:01.241Z,12.80
2018-12-02T14:15:35.988Z,12.70
2018-12-02T14:18:15.004Z,12.70
2018-12-02T14:20:43.268Z,12.60
2018-12-02T14:23:11.447Z,12.60
2018-12-02T14:25:39.610Z,12.50
2018-12-02T14:28:08.401Z,12.50
2018-12-02T14:30:36.496Z,12.50
2018-12-02T14:33:06.259Z,12.40
2018-12-02T14:35:33.197Z,12.40
2018-12-02T14:38:01.388Z,12.40
2018-12-02T14:40:29.592Z,12.40
2018-12-02T14:42:57.769Z,12.40
2018-12-02T14:45:25.920Z,12.40
2018-12-02T14:47:54.155Z,12.40
2018-12-02T14:50:22.296Z,12.40
2018-12-02T14:52:50.488Z,12.40
2018-12-02T14:55:19.156Z,12.40
2018-12-02T14:57:47.292Z,12.30
2018-12-02T15:00:16.552Z,12.30
2018-12-02T15:02:44.742Z,12.30
2018-12-02T15:05:13.444Z,12.30
2018-12-02T15:07:42.456Z,12.30
2018-12-02T15:10:14.844Z,12.20
2018-12-02T15:12:43.645Z,12.20
2018-12-02T15:15:14.903Z,12.20
2018-12-02T15:17:43.599Z,12.20
2018-12-02T15:20:13.932Z,12.20
2018-12-02T15:22:42.056Z,12.20
2018-12-02T15:25:12.351Z,12.10
2018-12-02T15:27:40.857Z,12.10
2018-12-02T15:30:11.398Z,12.10
2018-12-02T15:32:39.697Z,12.10
2018-12-02T15:35:08.889Z,12.00
2018-12-02T15:37:37.012Z,12.10
2018-12-02T15:40:08.137Z,12.10
2018-12-02T15:42:36.536Z,12.10
2018-12-02T15:45:05.832Z,12.00
2018-12-02T15:47:34.170Z,12.00
2018-12-02T15:50:02.336Z,12.00
2018-12-02T15:52:30.525Z,12.00
2018-12-02T15:54:58.710Z,11.90
2018-12-02T15:57:26.800Z,11.90
2018-12-02T15:59:55.021Z,11.90
2018-12-02T16:02:23.184Z,11.90
2018-12-02T16:04:51.353Z,11.90
2018-12-02T16:07:19.548Z,11.80
2018-12-02T16:09:47.772Z,11.90
2018-12-02T16:12:15.929Z,11.80
2018-12-02T16:14:44.104Z,11.80
2018-12-02T16:17:12.354Z,11.80
2018-12-02T16:19:40.479Z,11.80
2018-12-02T16:22:08.712Z,11.70
2018-12-02T16:24:36.855Z,11.70
2018-12-02T16:27:05.164Z,11.70
2018-12-02T16:29:33.328Z,11.60
2018-12-02T16:32:01.523Z,11.60
2018-12-02T16:34:29.700Z,11.60
2018-12-02T16:36:57.907Z,11.60
2018-12-02T16:39:26.084Z,11.60
2018-12-02T16:41:54.269Z,11.50
2018-12-02T16:44:22.445Z,11.50
2018-12-02T16:46:50.650Z,11.40
2018-12-02T16:49:18.824Z,11.40
2018-12-02T16:51:46.925Z,11.40
2018-12-02T16:54:15.099Z,11.40
2018-12-02T16:56:43.332Z,11.40
2018-12-02T16:59:20.252Z,11.40
2018-12-02T17:01:50.949Z,11.40
2018-12-02T17:04:19.701Z,11.40
2018-12-02T17:06:47.842Z,11.40
2018-12-02T17:09:15.996Z,11.40
2018-12-02T17:11:44.183Z,11.40
2018-12-02T17:14:12.386Z,11.40
2018-12-02T17:16:40.552Z,11.50
2018-12-02T17:19:08.753Z,11.50
2018-12-02T17:21:36.932Z,11.40
2018-12-02T17:24:06.777Z,11.40
2018-12-02T17:26:34.941Z,11.50
2018-12-02T17:29:03.388Z,11.50
2018-12-02T17:31:34.547Z,11.50
2018-12-02T17:34:02.693Z,11.50
2018-12-02T17:36:31.877Z,11.50
2018-12-02T17:39:07.123Z,11.50
2018-12-02T17:41:35.225Z,11.50
2018-12-02T17:44:03.615Z,11.50
2018-12-02T17:46:31.812Z,11.50
2018-12-02T17:49:00.003Z,11.50
2018-12-02T17:51:28.184Z,11.50
2018-12-02T17:53:56.373Z,11.50
2018-12-02T17:56:24.555Z,11.50
2018-12-02T17:58:52.740Z,11.50
2018-12-02T18:01:20.832Z,11.50
2018-12-02T18:03:49.064Z,11.50
2018-12-02T18:06:17.196Z,11.50
2018-12-02T18:08:45.392Z,11.50
2018-12-02T18:11:13.572Z,11.60
2018-12-02T18:13:41.775Z,11.60
2018-12-02T18:16:09.948Z,11.50
2018-12-02T18:18:38.148Z,11.50
2018-12-02T18:21:06.330Z,11.50
2018-12-02T18:23:34.541Z,11.50
2018-12-02T18:26:02.689Z,11.50
2018-12-02T18:28:30.879Z,11.50
2018-12-02T18:30:59.067Z,11.50
2018-12-02T18:33:27.267Z,11.50
2018-12-02T18:36:05.857Z,11.50
2018-12-02T18:38:35.788Z,11.50
2018-12-02T18:41:10.956Z,11.50
2018-12-02T18:43:39.188Z,11.50
2018-12-02T18:46:07.776Z,11.50
2018-12-02T18:48:35.980Z,11.50
2018-12-02T18:51:04.332Z,11.50
2018-12-02T18:53:32.517Z,11.50
2018-12-02T18:56:00.704Z,11.60
2018-12-02T18:58:28.889Z,11.60
2018-12-02T19:00:57.084Z,11.60
2018-12-02T19:03:25.384Z,11.60
2018-12-02T19:05:53.796Z,11.60
2018-12-02T19:08:21.936Z,11.60
2018-12-02T19:10:52.900Z,11.60
2018-12-02T19:13:21.081Z,11.60
2018-12-02T19:15:49.272Z,11.60
2018-12-02T19:18:17.456Z,11.60
2018-12-02T19:20:46.264Z,11.60
2018-12-02T19:23:16.777Z,11.60
2018-12-02T19:25:44.888Z,11.60
2018-12-02T19:28:13.076Z,11.60
2018-12-02T19:30:41.269Z,11.60
2018-12-02T19:33:11.676Z,11.60
2018-12-02T19:35:39.916Z,11.60
2018-12-02T19:38:12.303Z,11.60
2018-12-02T19:40:40.470Z,11.60
2018-12-02T19:43:08.655Z,11.60
2018-12-02T19:45:36.835Z,11.60
2018-12-02T19:48:05.198Z,11.60
2018-12-02T19:50:33.333Z,11.60
2018-12-02T19:53:01.488Z,11.60
2018-12-02T19:55:29.677Z,11.60
2018-12-02T19:57:57.916Z,11.60
2018-12-02T20:00:26.946Z,11.60
2018-12-02T20:02:55.320Z,11.60
2018-12-02T20:05:23.552Z,11.70
2018-12-02T20:07:55.101Z,11.70
2018-12-02T20:10:27.508Z,11.60
2018-12-02T20:12:57.008Z,11.60
2018-12-02T20:15:25.116Z,11.60
2018-12-02T20:17:53.297Z,11.60
2018-12-02T20:20:27.018Z,11.60
2018-12-02T20:22:55.206Z,11.60
2018-12-02T20:25:24.584Z,11.60
2018-12-02T20:27:56.264Z,11.60
2018-12-02T20:30:24.380Z,11.60
2018-12-02T20:32:52.693Z,11.60
2018-12-02T20:35:20.866Z,11.60
2018-12-02T20:37:49.044Z,11.60
2018-12-02T20:40:20.368Z,11.60
2018-12-02T20:42:49.280Z,11.60
2018-12-02T20:45:17.863Z,11.60
2018-12-02T20:47:46.080Z,11.60
2018-12-02T20:50:16.113Z,11.60
2018-12-02T20:52:44.601Z,11.50
2018-12-02T20:55:14.825Z,11.50
2018-12-02T20:57:42.924Z,11.50
2018-12-02T21:00:14.213Z,11.60
2018-12-02T21:02:43.172Z,11.60
2018-12-02T21:05:13.436Z,11.60
2018-12-02T21:07:41.608Z,11.60
2018-12-02T21:10:11.040Z,11.60
2018-12-02T21:12:39.216Z,11.60
2018-12-02T21:15:10.148Z,11.60
2018-12-02T21:17:38.252Z,11.60
2018-12-02T21:20:08.575Z,11.60
2018-12-02T21:22:36.701Z,11.60
2018-12-02T21:25:08.124Z,11.60
2018-12-02T21:27:36.240Z,11.60
2018-12-02T21:30:07.364Z,11.60
2018-12-02T21:32:35.475Z,11.50
2018-12-02T21:35:03.656Z,11.60
2018-12-02T21:37:31.840Z,11.60
2018-12-02T21:40:00.043Z,11.60
2018-12-02T21:42:28.220Z,11.60
2018-12-02T21:44:56.408Z,11.60
2018-12-02T21:47:24.584Z,11.60
2018-12-02T21:49:52.781Z,11.60
2018-12-02T21:52:20.960Z,11.60
2018-12-02T21:54:49.173Z,11.60
2018-12-02T21:57:17.342Z,11.70
2018-12-02T21:59:45.524Z,11.60
2018-12-02T22:02:13.719Z,11.70
2018-12-02T22:04:42.680Z,11.70
2018-12-02T22:07:10.088Z,11.60
2018-12-02T22:09:38.284Z,11.70
2018-12-02T22:12:06.472Z,11.70
2018-12-02T22:14:34.652Z,11.70
2018-12-02T22:17:02.840Z,11.70
2018-12-02T22:19:31.028Z,11.60
2018-12-02T22:21:59.206Z,11.60
2018-12-02T22:24:27.392Z,11.60
2018-12-02T22:26:55.576Z,11.70
2018-12-02T22:29:23.772Z,11.70
2018-12-02T22:31:51.952Z,11.70
2018-12-02T22:34:20.154Z,11.60
2018-12-02T22:36:48.352Z,11.70
2018-12-02T22:39:16.516Z,11.70
2018-12-02T22:41:44.704Z,11.70
2018-12-02T22:44:12.891Z,11.70
2018-12-02T22:46:41.082Z,11.70
2018-12-02T22:49:09.256Z,11.70
2018-12-02T22:51:37.354Z,11.60
2018-12-02T22:54:05.660Z,11.60
2018-12-02T22:56:33.836Z,11.70
2018-12-02T22:59:02.042Z,11.70
2018-12-02T23:01:35.693Z,11.70
2018-12-02T23:04:03.820Z,11.70
2018-12-02T23:06:32.000Z,11.70
2018-12-02T23:09:00.185Z,11.70
2018-12-02T23:11:28.372Z,11.70
2018-12-02T23:13:56.552Z,11.70
2018-12-02T23:16:24.750Z,11.70
2018-12-02T23:18:52.928Z,11.70
2018-12-02T23:21:21.128Z,11.70
2018-12-02T23:23:49.209Z,11.70
2018-12-02T23:26:17.396Z,11.70
2018-12-02T23:28:45.571Z,11.70
2018-12-02T23:31:13.764Z,11.70
2018-12-02T23:33:41.948Z,11.80
2018-12-02T23:36:10.136Z,11.80
2018-12-02T23:38:38.320Z,11.80
2018-12-02T23:41:06.535Z,11.80
2018-12-02T23:43:34.693Z,11.80
2018-12-02T23:46:02.881Z,11.80
2018-12-02T23:48:31.080Z,11.80
2018-12-02T23:50:59.261Z,11.80
2018-12-02T23:53:27.468Z,11.80
2018-12-02T23:55:55.629Z,11.80
2018-12-02T23:58:23.821Z,11.80
